Time;durP1;ratioP1;P1;durP2;ratioP2;P2;SDS_P1;SDS_P2;PMS_P1;PMS_P2;Temp;Humidity;BMP_temperature;BMP_pressure;BME280_temperature;BME280_humidity;BME280_pressure;Samples;Min_cycle;Max_cycle;Signal;HPM_P1;HPM_P2
2021/06/26 05:10:18;;;;;;;9.97;9.07;;;20.10;99.90;;;;;;5747003;22;20481;-46
2021/06/26 05:12:46;;;;;;;8.60;7.37;;;20.20;99.90;;;;;;5115793;28;20459;-44
2021/06/26 05:15:14;;;;;;;12.13;6.90;;;20.30;99.90;;;;;;5116033;28;20461;-47
2021/06/26 05:17:41;;;;;;;9.13;7.00;;;20.30;99.90;;;;;;5116612;28;20436;-44
2021/06/26 05:20:08;;;;;;;7.97;7.17;;;20.40;99.90;;;;;;5116736;28;20467;-45
2021/06/26 05:22:35;;;;;;;8.30;7.03;;;20.50;99.90;;;;;;5117103;28;20528;-47
2021/06/26 05:25:02;;;;;;;7.70;6.90;;;20.60;99.90;;;;;;5116211;28;20513;-46
2021/06/26 05:27:30;;;;;;;6.43;5.83;;;20.70;99.90;;;;;;5100130;28;20507;-46
2021/06/26 05:29:56;;;;;;;9.33;6.93;;;20.80;99.90;;;;;;5097619;28;20456;-49
2021/06/26 05:32:23;;;;;;;8.20;7.03;;;20.90;99.90;;;;;;5112931;28;20912;-47
2021/06/26 05:34:50;;;;;;;7.70;7.00;;;21.10;99.90;;;;;;5107192;28;20445;-45
2021/06/26 05:37:17;;;;;;;6.80;6.10;;;21.10;99.90;;;;;;5100361;28;20514;-49
2021/06/26 05:39:43;;;;;;;10.67;8.63;;;21.20;99.90;;;;;;5109264;28;20923;-43
2021/06/26 05:42:10;;;;;;;8.53;7.40;;;21.30;99.90;;;;;;5097762;28;20473;-44
2021/06/26 05:44:38;;;;;;;7.97;7.17;;;21.40;99.90;;;;;;5108683;28;20453;-44
2021/06/26 05:47:05;;;;;;;8.33;7.10;;;21.50;99.90;;;;;;5103577;28;20440;-47
2021/06/26 05:49:32;;;;;;;7.33;6.63;;;21.50;99.90;;;;;;5113906;28;20457;-44
2021/06/26 05:51:59;;;;;;;9.00;7.80;;;21.60;99.90;;;;;;5106189;28;20468;-45
2021/06/26 05:54:26;;;;;;;6.83;6.20;;;21.70;99.90;;;;;;5107360;28;20765;-45
2021/06/26 05:56:53;;;;;;;7.97;6.07;;;21.80;99.90;;;;;;5102223;28;20429;-43
2021/06/26 05:59:20;;;;;;;9.83;6.20;;;21.90;99.90;;;;;;5107026;28;20922;-46
2021/06/26 06:01:47;;;;;;;6.60;5.90;;;22.00;99.90;;;;;;5104778;28;20460;-44
2021/06/26 06:04:14;;;;;;;7.73;6.50;;;22.10;99.90;;;;;;5106030;28;20486;-44
2021/06/26 06:06:41;;;;;;;10.53;7.57;;;22.20;99.90;;;;;;5106521;28;20507;-44
2021/06/26 06:09:08;;;;;;;7.70;6.90;;;22.30;99.90;;;;;;5105312;28;20447;-45
2021/06/26 06:11:35;;;;;;;11.97;7.80;;;22.40;99.90;;;;;;5105968;28;20472;-46
2021/06/26 06:14:02;;;;;;;12.60;6.33;;;22.50;99.90;;;;;;5107331;28;20476;-47
2021/06/26 06:16:29;;;;;;;8.87;7.80;;;22.50;99.90;;;;;;5104830;28;20443;-46
2021/06/26 06:18:57;;;;;;;9.97;6.37;;;22.60;99.90;;;;;;5104906;28;20493;-48
2021/06/26 06:21:24;;;;;;;7.80;7.10;;;22.70;99.90;;;;;;5105038;28;20959;-44
2021/06/26 06:23:51;;;;;;;8.00;7.20;;;22.70;99.90;;;;;;5103605;28;20487;-48
2021/06/26 06:26:18;;;;;;;9.30;6.60;;;22.70;99.90;;;;;;5108290;28;20470;-46
2021/06/26 06:28:45;;;;;;;8.90;6.87;;;22.80;99.90;;;;;;5113891;28;20934;-45
2021/06/26 06:31:13;;;;;;;7.27;6.57;;;22.90;99.90;;;;;;5107821;28;20450;-47
2021/06/26 06:33:39;;;;;;;7.20;6.43;;;23.00;99.90;;;;;;5105111;28;20452;-49
2021/06/26 06:36:08;;;;;;;7.80;7.00;;;23.10;99.90;;;;;;5114008;28;20653;-45
2021/06/26 06:38:35;;;;;;;6.97;6.37;;;23.10;99.90;;;;;;5113707;28;20513;-44
2021/06/26 06:41:01;;;;;;;7.67;6.90;;;23.20;99.90;;;;;;5099843;28;20968;-48
2021/06/26 06:43:28;;;;;;;8.27;6.77;;;23.20;99.90;;;;;;5095978;28;20905;-51
2021/06/26 06:45:55;;;;;;;7.00;6.30;;;23.30;99.90;;;;;;5097007;28;20441;-49
2021/06/26 06:48:22;;;;;;;10.03;6.77;;;23.30;99.90;;;;;;5096731;28;20453;-47
2021/06/26 06:50:49;;;;;;;8.70;7.27;;;23.40;99.90;;;;;;5096969;28;20913;-49
2021/06/26 06:53:17;;;;;;;7.87;6.90;;;23.40;99.90;;;;;;5096859;28;20426;-47
2021/06/26 06:55:50;;;;;;;8.73;7.93;;;23.40;99.90;;;;;;5096794;28;20438;-51
2021/06/26 06:58:17;;;;;;;11.50;7.07;;;23.30;99.90;;;;;;5096956;28;20557;-46
2021/06/26 07:00:44;;;;;;;8.93;6.00;;;23.30;99.90;;;;;;5096869;28;20453;-50
2021/06/26 07:03:10;;;;;;;7.27;6.63;;;23.20;99.90;;;;;;5096682;28;20464;-49
2021/06/26 07:05:37;;;;;;;6.67;6.03;;;23.30;99.90;;;;;;5096736;28;20475;-46
2021/06/26 07:08:04;;;;;;;7.53;6.87;;;23.30;99.90;;;;;;5096820;28;20464;-44
2021/06/26 07:10:32;;;;;;;8.73;7.93;;;23.50;99.90;;;;;;5095998;28;20503;-52
2021/06/26 07:12:58;;;;;;;6.90;6.17;;;23.70;99.90;;;;;;5096681;28;21003;-50
2021/06/26 07:15:25;;;;;;;10.93;6.30;;;23.90;99.90;;;;;;5096262;28;20987;-51
2021/06/26 07:17:52;;;;;;;10.03;6.20;;;23.90;99.90;;;;;;5096283;28;20518;-44
2021/06/26 07:20:19;;;;;;;6.93;6.23;;;23.90;99.90;;;;;;5096560;28;20510;-50
2021/06/26 07:22:45;;;;;;;7.20;6.50;;;24.00;99.90;;;;;;5096109;28;20477;-48
2021/06/26 07:25:12;;;;;;;8.50;6.33;;;24.50;99.90;;;;;;5096461;28;20548;-47
2021/06/26 07:27:40;;;;;;;5.43;4.93;;;25.70;99.90;;;;;;5096028;28;20790;-50
2021/06/26 07:30:08;;;;;;;5.90;5.30;;;27.10;99.90;;;;;;5096304;28;20530;-47
2021/06/26 07:32:35;;;;;;;5.90;5.03;;;28.70;99.90;;;;;;5096038;28;20885;-46
2021/06/26 07:35:02;;;;;;;10.23;6.20;;;30.20;95.00;;;;;;5096242;28;20826;-46
2021/06/26 07:37:28;;;;;;;9.90;6.00;;;31.80;88.30;;;;;;5096333;28;20951;-48
2021/06/26 07:39:55;;;;;;;6.30;5.80;;;33.20;74.10;;;;;;5099006;28;21033;-47
2021/06/26 07:42:22;;;;;;;6.20;5.70;;;34.00;66.20;;;;;;5095818;28;20538;-50
2021/06/26 07:44:50;;;;;;;6.27;5.80;;;34.90;60.00;;;;;;5095884;28;20775;-49
2021/06/26 07:47:16;;;;;;;5.80;5.30;;;35.80;56.50;;;;;;5095955;28;20830;-49
2021/06/26 07:49:43;;;;;;;5.60;5.10;;;36.60;54.10;;;;;;5096078;28;20442;-51
2021/06/26 07:52:10;;;;;;;6.47;5.37;;;37.00;51.60;;;;;;5095926;28;20461;-45
2021/06/26 07:54:36;;;;;;;6.10;5.60;;;36.50;49.50;;;;;;5095456;28;20449;-49
2021/06/26 07:57:04;;;;;;;5.40;4.77;;;35.40;49.00;;;;;;5095811;28;20488;-49
2021/06/26 07:59:30;;;;;;;5.10;4.70;;;35.30;48.50;;;;;;5095748;28;20550;-48
2021/06/26 08:01:58;;;;;;;6.30;5.70;;;35.30;48.10;;;;;;5095772;28;20485;-49
2021/06/26 08:04:25;;;;;;;5.03;4.57;;;35.80;47.80;;;;;;5095577;28;20797;-47
2021/06/26 08:06:52;;;;;;;5.57;5.07;;;36.20;47.50;;;;;;5095740;28;20456;-47
2021/06/26 08:09:18;;;;;;;6.40;5.80;;;36.70;45.90;;;;;;5095221;28;20929;-49
2021/06/26 08:11:45;;;;;;;5.40;4.90;;;37.30;45.40;;;;;;5095398;28;20469;-52
2021/06/26 08:14:12;;;;;;;5.23;4.70;;;37.80;44.80;;;;;;5095353;28;20442;-51
2021/06/26 08:16:38;;;;;;;5.43;5.03;;;38.10;43.40;;;;;;5095128;28;20933;-50
2021/06/26 08:19:06;;;;;;;9.90;5.73;;;38.10;42.50;;;;;;5095454;28;20816;-50
2021/06/26 08:21:33;;;;;;;5.87;5.30;;;37.60;41.80;;;;;;5094986;28;20481;-48
2021/06/26 08:24:00;;;;;;;5.17;4.67;;;36.10;43.50;;;;;;5095007;28;20441;-46
2021/06/26 08:26:26;;;;;;;6.37;4.77;;;35.50;44.50;;;;;;5094904;28;20498;-51
2021/06/26 08:28:53;;;;;;;5.83;5.33;;;35.60;44.00;;;;;;5095046;28;20430;-48
2021/06/26 08:31:20;;;;;;;6.17;4.90;;;35.90;43.50;;;;;;5094870;28;20446;-52
2021/06/26 08:33:46;;;;;;;6.43;5.60;;;35.90;43.00;;;;;;5094918;28;20465;-49
2021/06/26 08:36:14;;;;;;;5.73;5.23;;;36.10;42.60;;;;;;5095052;28;20570;-49
2021/06/26 08:38:44;;;;;;;5.60;4.90;;;36.50;41.50;;;;;;5094794;28;20441;-45
2021/06/26 08:41:12;;;;;;;4.57;4.13;;;36.40;41.20;;;;;;5094791;28;20775;-45
2021/06/26 08:43:39;;;;;;;6.60;5.13;;;36.30;42.20;;;;;;5094802;28;20456;-47
2021/06/26 08:46:06;;;;;;;5.70;5.13;;;36.40;41.70;;;;;;5094788;28;20445;-47
2021/06/26 08:48:34;;;;;;;4.90;4.50;;;36.00;41.80;;;;;;5094846;28;20441;-44
2021/06/26 08:51:01;;;;;;;4.70;4.30;;;35.00;43.20;;;;;;5094657;28;20957;-48
2021/06/26 08:53:29;;;;;;;6.17;4.60;;;34.00;45.50;;;;;;5094403;28;20550;-50
2021/06/26 08:55:56;;;;;;;5.80;5.30;;;33.00;46.70;;;;;;5094789;28;20450;-45
2021/06/26 08:58:22;;;;;;;6.60;5.90;;;31.90;47.60;;;;;;5094586;28;20523;-49
2021/06/26 09:00:50;;;;;;;6.03;5.13;;;30.80;49.30;;;;;;5097991;28;20517;-48
2021/06/26 09:03:22;;;;;;;5.80;5.30;;;30.20;50.40;;;;;;5111304;28;20576;-47
2021/06/26 09:05:49;;;;;;;5.20;4.80;;;30.80;48.40;;;;;;5110823;28;20430;-53
2021/06/26 09:08:17;;;;;;;5.20;4.80;;;31.70;47.30;;;;;;5094947;28;20460;-47
2021/06/26 09:10:48;;;;;;;5.00;4.60;;;32.60;46.00;;;;;;5094427;28;20535;-49
2021/06/26 09:13:22;;;;;;;4.80;4.40;;;33.70;44.20;;;;;;5094821;28;20520;-51
2021/06/26 09:15:49;;;;;;;5.80;4.47;;;34.40;41.90;;;;;;5094754;28;20519;-48
2021/06/26 09:18:18;;;;;;;5.80;5.30;;;35.10;41.10;;;;;;5100777;28;20814;-48
2021/06/26 09:20:48;;;;;;;5.43;4.93;;;35.90;40.40;;;;;;5114722;28;20839;-47
2021/06/26 09:23:30;;;;;;;5.10;4.60;;;36.60;39.10;;;;;;5114912;28;20476;-48
2021/06/26 09:26:07;;;;;;;5.10;4.70;;;37.00;38.60;;;;;;5115207;28;20767;-47
2021/06/26 09:28:34;;;;;;;5.13;4.73;;;37.60;38.20;;;;;;5114807;28;20440;-51
2021/06/26 09:31:01;;;;;;;5.77;5.20;;;37.90;37.90;;;;;;5114561;28;20505;-50
2021/06/26 09:33:29;;;;;;;5.60;5.10;;;38.10;37.30;;;;;;5114642;28;20990;-51
2021/06/26 09:36:05;;;;;;;4.83;4.43;;;37.90;37.30;;;;;;5114793;28;20440;-48
2021/06/26 09:38:32;;;;;;;5.23;4.40;;;36.70;36.90;;;;;;5114938;28;20722;-51
2021/06/26 09:41:00;;;;;;;5.30;4.90;;;35.40;38.20;;;;;;5114594;28;20436;-46
2021/06/26 09:43:30;;;;;;;4.90;4.37;;;33.80;39.80;;;;;;5114699;28;20491;-50
2021/06/26 09:46:08;;;;;;;5.17;4.77;;;32.70;40.70;;;;;;5114506;28;20436;-48
2021/06/26 09:48:46;;;;;;;6.33;4.90;;;32.70;41.70;;;;;;5114685;28;20459;-51
2021/06/26 09:51:25;;;;;;;5.60;5.10;;;33.40;41.80;;;;;;5114515;28;20761;-55
2021/06/26 09:53:53;;;;;;;7.03;6.33;;;34.00;39.70;;;;;;5114493;28;20785;-49
2021/06/26 09:56:20;;;;;;;4.83;4.50;;;34.60;39.30;;;;;;5095426;28;20456;-47
2021/06/26 09:58:52;;;;;;;4.70;4.30;;;35.30;38.30;;;;;;5094029;28;20946;-47
2021/06/26 10:01:20;;;;;;;7.33;4.90;;;35.90;38.00;;;;;;5094242;28;20472;-47
2021/06/26 10:03:50;;;;;;;5.10;4.60;;;36.30;37.90;;;;;;5093890;28;20485;-45
2021/06/26 10:06:20;;;;;;;6.70;6.20;;;36.70;36.90;;;;;;5094156;28;20506;-45
2021/06/26 10:08:47;;;;;;;5.43;4.93;;;36.70;36.90;;;;;;5094294;28;20510;-50
2021/06/26 10:11:14;;;;;;;5.73;5.13;;;36.50;37.50;;;;;;5093650;28;20465;-49
2021/06/26 10:13:42;;;;;;;7.90;5.10;;;36.20;37.80;;;;;;5092843;28;20477;-48
2021/06/26 10:16:10;;;;;;;5.03;4.63;;;36.20;38.90;;;;;;6029989;22;20429;-46
2021/06/26 10:18:39;;;;;;;7.67;5.07;;;36.30;39.00;;;;;;5117492;28;20444;-46
2021/06/26 10:21:06;;;;;;;5.10;4.70;;;36.10;40.20;;;;;;5117290;28;20444;-49
2021/06/26 10:23:34;;;;;;;5.40;4.90;;;35.60;39.60;;;;;;5115629;28;20548;-49
2021/06/26 10:26:04;;;;;;;5.33;4.90;;;34.20;40.40;;;;;;5130532;28;20437;-50
2021/06/26 10:28:33;;;;;;;5.60;5.03;;;32.70;42.40;;;;;;5117309;28;20443;-51
2021/06/26 10:31:01;;;;;;;5.80;5.20;;;31.60;44.10;;;;;;5115288;28;20556;-48
2021/06/26 10:33:33;;;;;;;6.20;5.70;;;31.20;45.90;;;;;;5115588;28;20413;-48
2021/06/26 10:36:01;;;;;;;4.93;4.33;;;31.50;45.80;;;;;;5118263;28;20413;-51
2021/06/26 10:38:39;;;;;;;9.60;5.10;;;31.70;44.40;;;;;;5119712;28;20467;-47
2021/06/26 11:49:40;;;;;;;4.10;3.70;;;29.60;40.40;;;;;;5280615;22;20472;-45
2021/06/26 11:52:08;;;;;;;4.73;4.33;;;29.60;41.10;;;;;;5117117;28;20445;-47
2021/06/26 11:54:35;;;;;;;5.03;3.47;;;29.60;42.20;;;;;;5116258;28;20448;-49
2021/06/26 11:57:02;;;;;;;3.93;3.60;;;29.50;40.60;;;;;;5111743;28;20444;-50
2021/06/26 11:59:39;;;;;;;3.53;3.20;;;29.50;40.70;;;;;;5100088;28;20890;-46
2021/06/26 12:02:06;;;;;;;4.13;3.73;;;29.50;40.80;;;;;;5099609;28;20428;-46
2021/06/26 12:04:32;;;;;;;5.27;4.50;;;29.40;40.90;;;;;;5116416;28;20497;-46
2021/06/26 12:07:00;;;;;;;3.83;3.53;;;29.10;40.90;;;;;;5114009;28;20441;-51
2021/06/26 12:09:27;;;;;;;3.60;3.30;;;29.00;41.30;;;;;;5104659;28;20490;-51
2021/06/26 12:11:57;;;;;;;3.83;3.47;;;29.10;41.50;;;;;;5116296;28;20581;-49
2021/06/26 12:14:28;;;;;;;3.03;2.83;;;29.20;41.70;;;;;;5111850;28;20452;-45
2021/06/26 12:17:04;;;;;;;3.30;2.90;;;29.30;41.70;;;;;;5116314;28;20436;-45
2021/06/26 12:19:31;;;;;;;9.30;3.40;;;29.20;39.90;;;;;;5115973;28;20443;-47
2021/06/26 12:21:59;;;;;;;5.03;2.80;;;28.80;40.90;;;;;;5115987;28;20456;-45
2021/06/26 12:24:29;;;;;;;3.70;3.40;;;28.50;40.80;;;;;;5116042;28;20455;-44
2021/06/26 12:27:13;;;;;;;3.50;3.20;;;28.20;41.30;;;;;;5106641;28;20472;-45
2021/06/26 12:29:43;;;;;;;3.70;3.10;;;27.90;41.50;;;;;;5116142;28;20501;-48
2021/06/26 12:32:10;;;;;;;2.93;2.73;;;27.70;42.40;;;;;;5116041;28;20451;-44
2021/06/26 12:34:47;;;;;;;3.30;3.00;;;27.60;43.10;;;;;;5115964;28;20456;-44
2021/06/26 12:37:15;;;;;;;3.17;2.87;;;27.50;42.50;;;;;;5115880;28;20436;-45
2021/06/26 12:42:18;;;;;;;2.73;2.53;;;27.50;43.00;;;;;;5293911;22;20477;-50
2021/06/26 12:44:55;;;;;;;3.57;3.27;;;27.70;41.60;;;;;;5095022;28;20767;-48
2021/06/26 12:47:23;;;;;;;3.43;3.13;;;28.00;42.50;;;;;;5095166;28;20453;-47
2021/06/26 12:50:00;;;;;;;3.00;2.80;;;28.10;41.20;;;;;;5094880;28;20457;-47
2021/06/26 12:52:27;;;;;;;2.87;2.67;;;28.30;40.60;;;;;;5095238;28;20429;-49
2021/06/26 12:54:55;;;;;;;3.90;2.50;;;28.30;40.40;;;;;;5095156;28;20449;-45
2021/06/26 12:57:23;;;;;;;2.70;2.50;;;28.20;40.40;;;;;;5094726;28;20453;-46
2021/06/26 12:59:50;;;;;;;3.50;2.90;;;28.20;42.30;;;;;;5094878;28;20759;-47
2021/06/26 13:02:19;;;;;;;3.00;2.70;;;28.40;43.00;;;;;;5103522;28;20468;-44
2021/06/26 13:04:49;;;;;;;3.33;3.00;;;28.50;40.80;;;;;;5106308;28;20578;-47
2021/06/26 13:17:39;;;;;;;2.40;2.20;;;28.40;39.20;;;;;;5191371;22;20476;-45
2021/06/26 13:20:09;;;;;;;3.40;2.50;;;28.10;39.10;;;;;;5103066;28;20457;-47
2021/06/26 13:22:40;;;;;;;39.90;29.67;;;28.10;41.00;;;;;;5104459;28;20464;-47
2021/06/26 13:25:07;;;;;;;4.30;3.60;;;28.20;41.70;;;;;;5115515;28;20409;-53
2021/06/26 13:27:34;;;;;;;3.10;2.90;;;28.40;40.90;;;;;;5115539;28;20441;-50
2021/06/26 13:30:03;;;;;;;2.93;2.63;;;28.50;38.50;;;;;;5115181;28;20469;-47
2021/06/26 13:32:30;;;;;;;2.60;2.40;;;28.40;37.70;;;;;;5114989;28;20421;-47
2021/06/26 13:34:58;;;;;;;2.93;2.70;;;28.50;37.50;;;;;;5122246;28;20466;-50
2021/06/26 13:37:24;;;;;;;2.80;2.00;;;28.70;38.00;;;;;;5136176;28;20427;-47
2021/06/26 13:39:54;;;;;;;3.10;2.70;;;28.90;38.70;;;;;;5135726;28;20786;-50
2021/06/26 13:42:20;;;;;;;2.47;2.27;;;29.00;37.70;;;;;;5135083;28;20470;-45
2021/06/26 13:44:47;;;;;;;4.43;2.63;;;29.10;36.10;;;;;;5135896;28;20436;-49
2021/06/26 13:47:14;;;;;;;2.77;2.50;;;29.20;35.10;;;;;;5135121;28;20416;-49
2021/06/26 13:49:40;;;;;;;2.90;2.60;;;29.20;35.20;;;;;;5135869;28;20433;-49
2021/06/26 13:52:09;;;;;;;3.60;2.60;;;29.20;35.50;;;;;;5138574;28;20442;-50
2021/06/26 13:54:36;;;;;;;2.93;2.30;;;29.20;35.80;;;;;;5140106;28;20482;-48
2021/06/26 13:57:06;;;;;;;3.33;2.87;;;29.30;35.70;;;;;;5140950;28;20460;-49
2021/06/26 13:59:32;;;;;;;2.70;2.50;;;29.40;36.50;;;;;;5140034;28;20458;-47
2021/06/26 14:01:59;;;;;;;3.47;3.03;;;29.50;37.50;;;;;;5140736;28;20441;-47
2021/06/26 14:04:28;;;;;;;2.53;2.33;;;29.60;37.70;;;;;;5139723;28;20510;-48
2021/06/26 14:06:55;;;;;;;2.60;2.40;;;29.50;36.50;;;;;;5140263;28;20496;-46
2021/06/26 14:09:23;;;;;;;2.87;2.40;;;29.50;36.50;;;;;;5139956;28;20452;-46
2021/06/26 14:11:51;;;;;;;2.93;2.53;;;29.30;35.90;;;;;;5122613;28;20518;-49
2021/06/26 14:14:19;;;;;;;2.70;2.50;;;29.10;36.10;;;;;;5097800;28;20507;-51
2021/06/26 14:16:45;;;;;;;2.77;2.57;;;28.90;37.20;;;;;;5097351;28;20482;-45
2021/06/26 14:19:12;;;;;;;10.80;3.07;;;28.90;37.30;;;;;;5097294;28;20456;-47
2021/06/26 14:21:39;;;;;;;3.80;3.10;;;29.00;37.40;;;;;;5097519;28;20448;-45
2021/06/26 14:24:06;;;;;;;3.03;2.83;;;29.10;38.30;;;;;;5096785;28;20488;-49
2021/06/26 14:26:34;;;;;;;3.20;2.90;;;29.30;38.40;;;;;;5839996;22;20480;-45
2021/06/26 14:29:04;;;;;;;4.20;3.60;;;29.50;39.10;;;;;;5097914;28;20520;-49
2021/06/26 14:31:31;;;;;;;4.70;3.80;;;29.40;39.80;;;;;;5101036;28;20502;-48
2021/06/26 14:33:57;;;;;;;4.23;3.83;;;29.60;39.80;;;;;;5117973;28;20448;-48
2021/06/26 14:36:24;;;;;;;3.13;2.83;;;29.90;40.50;;;;;;5107455;28;20439;-46
2021/06/26 14:38:51;;;;;;;4.83;3.10;;;30.00;39.00;;;;;;5118247;28;20432;-48
2021/06/26 14:41:18;;;;;;;5.30;3.33;;;30.00;38.50;;;;;;5101099;28;20453;-45
2021/06/26 14:43:46;;;;;;;4.90;3.20;;;30.10;39.80;;;;;;5098114;28;20597;-46
2021/06/26 14:46:12;;;;;;;3.43;3.20;;;30.30;38.90;;;;;;5098505;28;20445;-50
2021/06/26 14:48:40;;;;;;;3.20;2.90;;;30.30;39.30;;;;;;5109704;27;20436;-46
2021/06/26 14:51:07;;;;;;;4.70;3.93;;;30.20;40.10;;;;;;5117976;28;20467;-48
2021/06/26 14:53:35;;;;;;;5.30;3.63;;;29.90;39.60;;;;;;5118384;28;20448;-49
2021/06/26 14:56:02;;;;;;;3.90;3.50;;;29.60;41.00;;;;;;5117630;28;20448;-46
2021/06/26 14:58:29;;;;;;;4.90;4.27;;;29.20;40.80;;;;;;5117482;28;20448;-44
2021/06/26 15:00:57;;;;;;;7.20;4.17;;;28.90;41.20;;;;;;5117626;28;20460;-47
2021/06/26 15:03:23;;;;;;;3.90;3.60;;;28.70;42.50;;;;;;5116303;28;20472;-51
2021/06/26 15:05:50;;;;;;;4.70;4.30;;;28.60;42.90;;;;;;5117593;28;20457;-45
2021/06/26 15:08:17;;;;;;;4.00;3.60;;;28.40;43.20;;;;;;5117221;28;20461;-48
2021/06/26 15:13:14;;;;;;;26.03;23.23;;;28.30;43.80;;;;;;5049456;28;20443;-46
2021/06/26 15:15:42;;;;;;;31.80;22.47;;;28.30;43.70;;;;;;5052577;28;20904;-50
2021/06/26 15:18:10;;;;;;;15.73;11.43;;;28.30;44.40;;;;;;5045615;28;20468;-47
2021/06/26 15:20:37;;;;;;;4.73;4.23;;;28.40;44.10;;;;;;5047804;28;20440;-45
2021/06/26 15:23:03;;;;;;;5.70;4.30;;;28.60;44.70;;;;;;5043152;28;20486;-50
2021/06/26 15:25:30;;;;;;;6.10;4.80;;;28.80;45.40;;;;;;5038144;28;20456;-51
2021/06/26 15:27:59;;;;;;;5.03;4.53;;;29.00;45.90;;;;;;5045317;28;20471;-54
2021/06/26 15:30:26;;;;;;;5.43;4.07;;;29.20;45.60;;;;;;5048412;28;20506;-50
2021/06/26 15:32:53;;;;;;;8.43;4.50;;;29.40;45.90;;;;;;5049673;28;20452;-48
2021/06/26 15:35:21;;;;;;;5.30;4.23;;;29.60;45.90;;;;;;5041710;28;20436;-45
2021/06/26 15:37:48;;;;;;;4.73;4.40;;;29.70;45.10;;;;;;5042968;28;20450;-45
2021/06/26 15:40:15;;;;;;;5.40;4.80;;;29.60;45.70;;;;;;5048643;28;20435;-47
2021/06/26 15:42:42;;;;;;;6.50;4.30;;;29.60;45.90;;;;;;5045075;28;20520;-47
2021/06/26 15:45:10;;;;;;;8.90;4.30;;;29.50;45.00;;;;;;5050279;28;20472;-51
2021/06/26 15:47:37;;;;;;;6.67;5.17;;;29.60;45.00;;;;;;5044100;28;20444;-52
2021/06/26 15:50:06;;;;;;;4.67;4.20;;;29.60;45.50;;;;;;5046258;28;20447;-47
2021/06/26 15:52:35;;;;;;;4.57;4.17;;;29.60;45.00;;;;;;5046683;28;20466;-50
2021/06/26 15:55:05;;;;;;;4.80;4.30;;;29.60;45.10;;;;;;5047204;28;20478;-49
2021/06/26 15:57:32;;;;;;;7.00;4.17;;;29.60;45.40;;;;;;5049543;28;20437;-50
2021/06/26 15:59:59;;;;;;;4.53;4.13;;;29.50;45.10;;;;;;5046101;28;20448;-50
2021/06/26 16:02:25;;;;;;;4.80;4.40;;;29.40;45.20;;;;;;5047976;28;20464;-46
2021/06/26 16:04:52;;;;;;;4.40;3.90;;;29.30;45.30;;;;;;5045661;28;20487;-47
2021/06/26 16:07:20;;;;;;;4.73;4.33;;;29.10;45.60;;;;;;5048090;28;20450;-45
2021/06/26 16:09:51;;;;;;;5.07;3.60;;;28.90;45.90;;;;;;5050260;28;20433;-47
2021/06/26 16:12:18;;;;;;;4.20;3.80;;;28.60;46.00;;;;;;5030335;28;20479;-50
2021/06/26 16:14:46;;;;;;;4.57;4.17;;;28.30;46.70;;;;;;5023551;28;20436;-44
2021/06/26 16:17:13;;;;;;;7.10;3.77;;;28.00;47.30;;;;;;5023767;28;20472;-45
2021/06/26 16:19:40;;;;;;;4.27;3.87;;;27.80;47.30;;;;;;5023348;28;20441;-47
2021/06/26 16:22:06;;;;;;;5.90;3.57;;;27.60;47.80;;;;;;5018344;28;20523;-48
2021/06/26 16:24:34;;;;;;;4.43;3.90;;;27.50;48.40;;;;;;5015538;28;20569;-49
2021/06/26 16:27:02;;;;;;;4.37;3.77;;;27.20;48.50;;;;;;5015766;28;20445;-50
2021/06/26 16:29:28;;;;;;;4.40;4.00;;;27.10;49.00;;;;;;5015235;28;20449;-46
2021/06/26 16:31:55;;;;;;;5.17;4.67;;;27.00;49.50;;;;;;5015651;28;20446;-45
2021/06/26 16:34:21;;;;;;;6.07;4.37;;;27.00;49.90;;;;;;5015637;28;20445;-48
2021/06/26 16:36:51;;;;;;;4.73;4.17;;;27.10;49.60;;;;;;5015432;28;20456;-44
2021/06/26 16:39:19;;;;;;;4.90;4.10;;;27.10;49.20;;;;;;5015642;28;20463;-48
2021/06/26 16:41:46;;;;;;;4.83;4.43;;;27.10;49.10;;;;;;5015311;28;20459;-47
2021/06/26 16:44:14;;;;;;;4.33;3.80;;;27.20;49.90;;;;;;5015317;28;20477;-47
2021/06/26 16:46:41;;;;;;;5.77;3.87;;;27.30;49.50;;;;;;5015315;28;20765;-48
2021/06/26 16:49:08;;;;;;;4.13;3.83;;;27.30;50.10;;;;;;5015381;28;20457;-50
2021/06/26 16:51:35;;;;;;;3.93;3.63;;;27.20;49.10;;;;;;5015339;28;20507;-51
2021/06/26 16:54:02;;;;;;;4.43;4.03;;;27.10;49.50;;;;;;5015314;28;20455;-52
2021/06/26 16:56:29;;;;;;;4.20;3.90;;;27.10;49.50;;;;;;5000864;28;20474;-50
2021/06/26 16:58:55;;;;;;;14.43;5.00;;;27.10;49.60;;;;;;5013985;28;20822;-51
2021/06/26 17:01:23;;;;;;;4.30;3.90;;;27.00;50.10;;;;;;5009405;28;20450;-50
2021/06/26 17:03:50;;;;;;;4.03;3.67;;;26.90;50.20;;;;;;4995111;28;20521;-46
2021/06/26 17:06:17;;;;;;;6.10;4.13;;;26.80;50.40;;;;;;4995404;28;20469;-47
2021/06/26 17:08:44;;;;;;;4.40;4.00;;;26.60;50.80;;;;;;4995555;28;20450;-47
2021/06/26 17:11:13;;;;;;;4.03;3.63;;;26.50;51.20;;;;;;4995047;28;20482;-50
2021/06/26 17:13:40;;;;;;;3.53;3.23;;;26.40;51.30;;;;;;5001841;28;20528;-46
2021/06/26 17:16:07;;;;;;;4.63;4.23;;;26.30;52.00;;;;;;5017558;28;20490;-45
2021/06/26 17:18:36;;;;;;;5.37;4.37;;;26.20;52.10;;;;;;5025726;28;20432;-46
2021/06/26 17:21:04;;;;;;;4.30;3.90;;;26.10;52.40;;;;;;5028945;28;20746;-46
2021/06/26 17:23:31;;;;;;;4.73;4.20;;;26.10;52.50;;;;;;5016505;28;20473;-52
2021/06/26 17:25:57;;;;;;;4.90;3.90;;;26.00;52.40;;;;;;5002706;28;20444;-52
2021/06/26 17:28:27;;;;;;;4.60;3.90;;;25.90;52.60;;;;;;5024853;28;20444;-46
2021/06/26 17:30:54;;;;;;;4.13;3.73;;;25.80;53.00;;;;;;5022469;28;20449;-49
2021/06/26 17:33:21;;;;;;;4.50;4.10;;;25.80;53.40;;;;;;5022368;28;20448;-48
2021/06/26 17:35:50;;;;;;;3.73;3.33;;;25.80;53.00;;;;;;5022342;28;20446;-47
2021/06/26 17:38:17;;;;;;;4.10;2.90;;;25.80;52.30;;;;;;5024863;28;20445;-46
2021/06/26 17:40:44;;;;;;;7.13;4.53;;;25.80;52.40;;;;;;5022880;28;20914;-52
2021/06/26 17:43:11;;;;;;;5.03;4.53;;;25.90;52.50;;;;;;5024066;28;20440;-50
2021/06/26 17:45:38;;;;;;;6.00;3.30;;;25.90;52.60;;;;;;5024831;28;20937;-46
2021/06/26 17:48:06;;;;;;;5.10;3.40;;;25.90;53.00;;;;;;5020031;28;20444;-47
2021/06/26 17:50:32;;;;;;;3.50;3.20;;;26.00;52.50;;;;;;5023050;28;20488;-50
2021/06/26 17:53:01;;;;;;;4.70;4.07;;;26.00;52.60;;;;;;5022761;28;20517;-47
2021/06/26 17:55:29;;;;;;;4.40;3.50;;;26.00;51.80;;;;;;5020002;28;20456;-47
2021/06/26 17:57:55;;;;;;;7.80;4.10;;;26.10;51.90;;;;;;5024408;28;20468;-46
2021/06/26 18:00:23;;;;;;;3.70;3.40;;;26.10;52.10;;;;;;5023583;28;20445;-45
2021/06/26 18:02:49;;;;;;;4.03;3.63;;;26.10;51.60;;;;;;5024718;28;20451;-51
2021/06/26 18:05:17;;;;;;;3.73;3.40;;;26.20;51.80;;;;;;5023757;28;20832;-44
2021/06/26 18:07:44;;;;;;;4.27;3.80;;;26.20;52.20;;;;;;5021192;28;20441;-46
2021/06/26 18:10:15;;;;;;;6.13;3.30;;;26.10;51.70;;;;;;5024925;28;20485;-51
2021/06/26 18:12:42;;;;;;;7.10;3.77;;;26.10;52.20;;;;;;5024752;28;20464;-51
2021/06/26 18:15:12;;;;;;;4.20;3.40;;;26.10;52.10;;;;;;5023376;28;20437;-45
2021/06/26 18:17:39;;;;;;;3.00;2.80;;;26.00;52.30;;;;;;5021182;28;20472;-45
2021/06/26 18:20:08;;;;;;;4.10;3.80;;;26.00;52.10;;;;;;5021787;28;20542;-44
2021/06/26 18:22:36;;;;;;;6.57;4.33;;;26.00;52.20;;;;;;5024688;28;20448;-46
2021/06/26 18:25:03;;;;;;;5.33;3.67;;;26.00;52.40;;;;;;5022669;28;20481;-49
2021/06/26 18:27:32;;;;;;;4.13;3.73;;;25.90;52.30;;;;;;5023662;28;20444;-48
2021/06/26 18:29:58;;;;;;;5.90;4.10;;;25.90;53.30;;;;;;5024819;28;20457;-49
2021/06/26 18:32:25;;;;;;;5.60;3.90;;;25.80;53.80;;;;;;5016743;28;20441;-44
2021/06/26 18:34:52;;;;;;;5.43;4.37;;;25.80;54.40;;;;;;5015189;28;20483;-46
2021/06/26 18:37:20;;;;;;;4.93;4.47;;;25.70;55.00;;;;;;5021894;28;20468;-47
2021/06/26 18:39:47;;;;;;;5.10;4.60;;;25.60;55.70;;;;;;5027727;28;20482;-52
2021/06/26 18:42:13;;;;;;;4.80;4.30;;;25.50;56.10;;;;;;5026524;28;20437;-52
2021/06/26 18:44:41;;;;;;;4.80;4.07;;;25.50;56.30;;;;;;5028326;28;20531;-48
2021/06/26 18:47:08;;;;;;;6.90;3.90;;;25.40;56.40;;;;;;5028647;28;20456;-44
2021/06/26 18:49:35;;;;;;;4.80;4.40;;;25.30;56.60;;;;;;5024730;28;20828;-53
2021/06/26 18:52:01;;;;;;;4.70;4.30;;;25.20;56.70;;;;;;4997664;28;20445;-49
2021/06/26 18:54:28;;;;;;;4.70;4.17;;;25.20;57.20;;;;;;5020585;28;20444;-50
2021/06/26 18:56:55;;;;;;;4.73;4.33;;;25.10;57.20;;;;;;5018915;28;20491;-48
2021/06/26 18:59:21;;;;;;;5.60;5.10;;;25.10;57.40;;;;;;5017298;28;20441;-47
2021/06/26 19:01:49;;;;;;;4.93;4.50;;;25.00;57.60;;;;;;4997655;28;20496;-48
2021/06/26 19:04:16;;;;;;;5.40;4.93;;;25.00;57.50;;;;;;4997316;28;20446;-44
2021/06/26 19:06:43;;;;;;;4.47;4.07;;;24.90;57.40;;;;;;4997271;28;20527;-44
2021/06/26 19:09:10;;;;;;;4.50;4.10;;;24.90;57.70;;;;;;4997575;28;20446;-48
2021/06/26 19:11:37;;;;;;;4.83;4.43;;;24.80;57.80;;;;;;4996535;28;20473;-48
2021/06/26 19:14:05;;;;;;;5.00;4.60;;;24.70;58.10;;;;;;4997263;28;20796;-48
2021/06/26 19:16:32;;;;;;;10.33;5.33;;;24.70;58.10;;;;;;4997116;28;20453;-48
2021/06/26 19:19:00;;;;;;;5.50;4.80;;;24.70;58.20;;;;;;4996965;28;20508;-45
2021/06/26 19:21:27;;;;;;;4.90;4.40;;;24.70;58.20;;;;;;4997124;28;20778;-47